Time,TemperatureF,DewpointF,PressureIn,WindDirection,WindDirectionDegrees,WindSpeedMPH,WindSpeedGustMPH,Humidity,HourlyPrecipIn,Conditions,Clouds,dailyrainin,SoftwareType,DateUTC
2013-04-25 00:02:00,35.0,19.0,-100.00,SSE,160,7.0,8.0,50,-99.99,,,-99.99,,2013-04-25 06:02:00,
2013-04-25 00:11:00,35.0,19.0,-100.00,South,170,6.0,7.0,52,-99.99,,,-99.99,,2013-04-25 06:11:00,
2013-04-25 00:22:00,35.0,19.0,-100.00,South,170,5.0,6.0,53,-99.99,,,-99.99,,2013-04-25 06:22:00,
2013-04-25 00:32:00,34.0,20.0,-100.00,South,180,7.0,7.0,54,-99.99,,,-99.99,,2013-04-25 06:32:00,
2013-04-25 00:42:00,34.0,20.0,-100.00,South,180,7.0,7.0,54,-99.99,,,-99.99,,2013-04-25 06:42:00,
2013-04-25 00:52:00,33.0,20.0,-100.00,South,190,4.0,6.0,57,-99.99,,,-99.99,,2013-04-25 06:52:00,
2013-04-25 01:02:00,33.0,20.0,-100.00,SSW,195,5.0,6.0,58,-99.99,,,-99.99,,2013-04-25 07:02:00,
2013-04-25 01:12:00,33.0,20.0,-100.00,SSW,200,6.0,6.0,60,-99.99,,,-99.99,,2013-04-25 07:12:00,
2013-04-25 01:22:00,33.0,20.0,-100.00,SSW,200,6.0,6.0,60,-99.99,,,-99.99,,2013-04-25 07:22:00,
2013-04-25 01:32:00,33.0,20.0,-100.00,SSW,200,6.0,6.0,60,-99.99,,,-99.99,,2013-04-25 07:32:00,
2013-04-25 01:42:00,30.0,20.0,-100.00,SW,225,9.0,10.0,66,-99.99,,,-99.99,,2013-04-25 07:42:00,
2013-04-25 01:52:00,32.0,22.0,-100.00,SW,225,11.0,12.0,65,-99.99,,,-99.99,,2013-04-25 07:52:00,
2013-04-25 02:02:00,31.0,22.0,-100.00,SW,225,6.0,11.0,66,-99.99,,,-99.99,,2013-04-25 08:02:00,
2013-04-25 02:11:00,31.0,22.0,-100.00,SW,225,6.0,11.0,66,-99.99,,,-99.99,,2013-04-25 08:11:00,
2013-04-25 02:21:00,32.0,22.0,-100.00,SW,225,7.0,8.0,66,-99.99,,,-99.99,,2013-04-25 08:21:00,
2013-04-25 02:31:00,32.0,22.0,-100.00,SW,225,6.0,8.0,66,-99.99,,,-99.99,,2013-04-25 08:31:00,
2013-04-25 02:42:00,31.0,22.0,-100.00,SW,235,7.0,8.0,69,-99.99,,,-99.99,,2013-04-25 08:42:00,
2013-04-25 02:51:00,31.0,22.0,-100.00,SW,235,10.0,11.0,68,-99.99,,,-99.99,,2013-04-25 08:51:00,
2013-04-25 03:01:00,32.0,22.0,-100.00,SW,225,9.0,10.0,66,-99.99,,,-99.99,,2013-04-25 09:01:00,
2013-04-25 03:11:00,31.0,22.0,-100.00,SW,230,9.0,9.0,68,-99.99,,,-99.99,,2013-04-25 09:11:00,
2013-04-25 03:21:00,30.0,22.0,-100.00,SW,235,9.0,9.0,69,-99.99,,,-99.99,,2013-04-25 09:21:00,
2013-04-25 03:33:00,31.0,22.0,-100.00,SW,235,10.0,11.0,68,-99.99,,,-99.99,,2013-04-25 09:33:00,
2013-04-25 03:42:00,31.0,22.0,-100.00,SW,235,9.0,10.0,68,-99.99,,,-99.99,,2013-04-25 09:42:00,
2013-04-25 03:52:00,31.0,22.0,-100.00,SW,235,10.0,11.0,68,-99.99,,,-99.99,,2013-04-25 09:52:00,
2013-04-25 04:02:00,31.0,22.0,-100.00,SW,235,10.0,11.0,68,-99.99,,,-99.99,,2013-04-25 10:02:00,
2013-04-25 04:12:00,31.0,22.0,-100.00,SW,235,10.0,11.0,68,-99.99,,,-99.99,,2013-04-25 10:12:00,
2013-04-25 04:22:00,31.0,22.0,-100.00,SW,235,11.0,12.0,69,-99.99,,,-99.99,,2013-04-25 10:22:00,
2013-04-25 04:32:00,31.0,22.0,-100.00,SW,235,11.0,12.0,69,-99.99,,,-99.99,,2013-04-25 10:32:00,
2013-04-25 04:42:00,31.0,22.0,-100.00,SW,235,11.0,12.0,69,-99.99,,,-99.99,,2013-04-25 10:42:00,
2013-04-25 04:52:00,30.0,22.0,-100.00,WSW,250,9.0,9.0,72,-99.99,,,-99.99,,2013-04-25 10:52:00,
2013-04-25 05:02:00,29.0,22.0,-100.00,WSW,255,8.0,10.0,73,-99.99,,,-99.99,,2013-04-25 11:02:00,
2013-04-25 05:12:00,28.0,22.0,-100.00,West,265,7.0,9.0,75,-99.99,,,-99.99,,2013-04-25 11:12:00,
2013-04-25 05:22:00,28.0,22.0,-100.00,West,270,9.0,9.0,78,-99.99,,,-99.99,,2013-04-25 11:22:00,
2013-04-25 05:32:00,28.0,22.0,-100.00,West,280,9.0,9.0,79,-99.99,,,-99.99,,2013-04-25 11:32:00,
2013-04-25 05:42:00,28.0,22.0,-100.00,West,280,9.0,9.0,79,-99.99,,,-99.99,,2013-04-25 11:42:00,
2013-04-25 05:51:00,28.0,22.0,-100.00,West,280,9.0,9.0,79,-99.99,,,-99.99,,2013-04-25 11:51:00,
2013-04-25 06:01:00,28.0,22.0,-100.00,West,280,9.0,9.0,79,-99.99,,,-99.99,,2013-04-25 12:01:00,
2013-04-25 06:12:00,28.0,24.0,-100.00,WNW,290,10.0,11.0,82,-99.99,,,-99.99,,2013-04-25 12:12:00,
2013-04-25 06:21:00,28.0,24.0,-100.00,WNW,290,10.0,11.0,82,-99.99,,,-99.99,,2013-04-25 12:21:00,
2013-04-25 06:32:00,28.0,24.0,-100.00,WNW,290,10.0,11.0,82,-99.99,,,-99.99,,2013-04-25 12:32:00,
2013-04-25 06:42:00,30.0,25.0,-100.00,WNW,285,9.0,11.0,81,-99.99,,,-99.99,,2013-04-25 12:42:00,
2013-04-25 06:52:00,30.0,25.0,-100.00,WNW,285,8.0,11.0,81,-99.99,,,-99.99,,2013-04-25 12:52:00,
2013-04-25 07:02:00,32.0,26.0,-100.00,West,280,9.0,10.0,79,-99.99,,,-99.99,,2013-04-25 13:02:00,
2013-04-25 07:11:00,32.0,26.0,-100.00,West,280,9.0,10.0,79,-99.99,,,-99.99,,2013-04-25 13:11:00,
2013-04-25 07:21:00,33.0,27.0,-100.00,West,270,9.0,11.0,78,-99.99,,,-99.99,,2013-04-25 13:21:00,
2013-04-25 07:32:00,34.0,28.0,-100.00,West,270,7.0,11.0,77,-99.99,,,-99.99,,2013-04-25 13:32:00,
2013-04-25 07:42:00,34.0,28.0,-100.00,West,270,7.0,11.0,77,-99.99,,,-99.99,,2013-04-25 13:42:00,
2013-04-25 07:52:00,34.0,28.0,-100.00,West,270,7.0,11.0,77,-99.99,,,-99.99,,2013-04-25 13:52:00,
2013-04-25 08:02:00,34.0,28.0,-100.00,West,270,7.0,11.0,77,-99.99,,,-99.99,,2013-04-25 14:02:00,
2013-04-25 08:42:00,45.0,26.0,-100.00,SSE,150,14.0,18.0,47,-99.99,,,-99.99,,2013-04-25 14:42:00,
2013-04-25 08:52:00,46.0,26.0,-100.00,SE,140,12.0,17.0,45,-99.99,,,-99.99,,2013-04-25 14:52:00,
2013-04-25 09:02:00,46.0,26.0,-100.00,SE,140,12.0,17.0,45,-99.99,,,-99.99,,2013-04-25 15:02:00,
2013-04-25 09:11:00,46.0,26.0,-100.00,SE,140,12.0,17.0,45,-99.99,,,-99.99,,2013-04-25 15:11:00,
2013-04-25 09:21:00,46.0,26.0,-100.00,SE,140,12.0,17.0,45,-99.99,,,-99.99,,2013-04-25 15:21:00,
2013-04-25 10:24:00,57.0,28.0,-100.00,East,90,7.0,12.0,32,-99.99,,,-99.99,,2013-04-25 16:24:00,
2013-04-25 10:32:00,57.0,28.0,-100.00,East,90,7.0,12.0,32,-99.99,,,-99.99,,2013-04-25 16:32:00,
2013-04-25 10:43:00,59.0,27.0,-100.00,East,80,9.0,12.0,30,-99.99,,,-99.99,,2013-04-25 16:43:00,
2013-04-25 10:52:00,59.0,27.0,-100.00,East,80,9.0,12.0,30,-99.99,,,-99.99,,2013-04-25 16:52:00,
2013-04-25 11:02:00,59.0,27.0,-100.00,East,80,9.0,12.0,30,-99.99,,,-99.99,,2013-04-25 17:02:00,
2013-04-25 11:11:00,59.0,27.0,-100.00,East,80,9.0,12.0,30,-99.99,,,-99.99,,2013-04-25 17:11:00,
2013-04-25 12:22:00,64.0,28.0,-100.00,ENE,60,14.0,19.0,25,-99.99,,,-99.99,,2013-04-25 18:22:00,
2013-04-25 12:32:00,64.0,28.0,-100.00,ENE,60,13.0,17.0,24,-99.99,,,-99.99,,2013-04-25 18:32:00,
2013-04-25 12:42:00,66.0,29.0,-100.00,ENE,60,11.0,17.0,24,-99.99,,,-99.99,,2013-04-25 18:42:00,
2013-04-25 12:52:00,66.0,29.0,-100.00,ENE,60,12.0,24.0,24,-99.99,,,-99.99,,2013-04-25 18:52:00,
2013-04-25 13:01:00,66.0,28.0,-100.00,ENE,60,24.0,29.0,24,-99.99,,,-99.99,,2013-04-25 19:01:00,
2013-04-25 13:12:00,65.0,28.0,-100.00,ENE,60,17.0,23.0,24,-99.99,,,-99.99,,2013-04-25 19:12:00,
2013-04-25 13:21:00,67.0,29.0,-100.00,ENE,60,16.0,23.0,24,-99.99,,,-99.99,,2013-04-25 19:21:00,
2013-04-25 13:31:00,67.0,29.0,-100.00,ENE,60,16.0,23.0,24,-99.99,,,-99.99,,2013-04-25 19:31:00,
2013-04-25 13:42:00,66.0,29.0,-100.00,ENE,60,11.0,21.0,24,-99.99,,,-99.99,,2013-04-25 19:42:00,
2013-04-25 13:52:00,66.0,29.0,-100.00,ENE,60,19.0,24.0,24,-99.99,,,-99.99,,2013-04-25 19:52:00,
2013-04-25 14:02:00,67.0,29.0,-100.00,ENE,60,17.0,23.0,24,-99.99,,,-99.99,,2013-04-25 20:02:00,
2013-04-25 14:11:00,67.0,30.0,-100.00,ENE,60,14.0,24.0,24,-99.99,,,-99.99,,2013-04-25 20:11:00,
2013-04-25 14:22:00,67.0,30.0,-100.00,ENE,60,14.0,24.0,24,-99.99,,,-99.99,,2013-04-25 20:22:00,
2013-04-25 14:32:00,69.0,31.0,-100.00,NE,55,14.0,20.0,24,-99.99,,,-99.99,,2013-04-25 20:32:00,
2013-04-25 14:42:00,69.0,31.0,-100.00,NE,55,14.0,20.0,24,-99.99,,,-99.99,,2013-04-25 20:42:00,
2013-04-25 14:52:00,67.0,29.0,-100.00,NE,55,13.0,25.0,23,-99.99,,,-99.99,,2013-04-25 20:52:00,
2013-04-25 15:01:00,69.0,29.0,-100.00,NE,55,15.0,22.0,23,-99.99,,,-99.99,,2013-04-25 21:01:00,
2013-04-25 15:11:00,69.0,29.0,-100.00,NE,50,14.0,21.0,22,-99.99,,,-99.99,,2013-04-25 21:11:00,
2013-04-25 15:22:00,69.0,29.0,-100.00,NE,50,15.0,25.0,22,-99.99,,,-99.99,,2013-04-25 21:22:00,
2013-04-25 15:33:00,68.0,27.0,-100.00,NE,45,13.0,24.0,21,-99.99,,,-99.99,,2013-04-25 21:33:00,
2013-04-25 15:42:00,69.0,28.0,-100.00,NE,50,9.0,17.0,22,-99.99,,,-99.99,,2013-04-25 21:42:00,
2013-04-25 15:52:00,71.0,30.0,-100.00,NE,50,9.0,15.0,22,-99.99,,,-99.99,,2013-04-25 21:52:00,
2013-04-25 16:02:00,70.0,29.0,-100.00,NE,45,12.0,17.0,21,-99.99,,,-99.99,,2013-04-25 22:02:00,
2013-04-25 16:12:00,70.0,28.0,-100.00,NE,45,11.0,16.0,21,-99.99,,,-99.99,,2013-04-25 22:12:00,
2013-04-25 16:22:00,70.0,28.0,-100.00,NE,45,11.0,16.0,21,-99.99,,,-99.99,,2013-04-25 22:22:00,
2013-04-25 16:33:00,69.0,28.0,-100.00,NE,45,11.0,17.0,21,-99.99,,,-99.99,,2013-04-25 22:33:00,
2013-04-25 16:42:00,70.0,28.0,-100.00,NE,45,9.0,17.0,21,-99.99,,,-99.99,,2013-04-25 22:42:00,
2013-04-25 16:53:00,70.0,28.0,-100.00,NE,45,11.0,16.0,21,-99.99,,,-99.99,,2013-04-25 22:53:00,
2013-04-25 17:02:00,69.0,27.0,-100.00,NE,45,12.0,16.0,20,-99.99,,,-99.99,,2013-04-25 23:02:00,
2013-04-25 17:12:00,69.0,27.0,-100.00,NE,40,12.0,17.0,19,-99.99,,,-99.99,,2013-04-25 23:12:00,
2013-04-25 17:22:00,69.0,25.0,-100.00,NE,40,11.0,17.0,19,-99.99,,,-99.99,,2013-04-25 23:22:00,
2013-04-25 17:32:00,68.0,25.0,-100.00,NE,40,12.0,17.0,19,-99.99,,,-99.99,,2013-04-25 23:32:00,
2013-04-25 17:42:00,68.0,25.0,-100.00,NE,40,12.0,15.0,19,-99.99,,,-99.99,,2013-04-25 23:42:00,
2013-04-25 17:52:00,68.0,25.0,-100.00,NE,40,9.0,14.0,19,-99.99,,,-99.99,,2013-04-25 23:52:00,
2013-04-25 18:01:00,69.0,26.0,-100.00,NE,40,11.0,14.0,19,-99.99,,,-99.99,,2013-04-26 00:01:00,
2013-04-25 18:11:00,69.0,26.0,-100.00,NE,40,10.0,16.0,19,-99.99,,,-99.99,,2013-04-26 00:11:00,
2013-04-25 18:21:00,69.0,26.0,-100.00,NE,40,9.0,12.0,19,-99.99,,,-99.99,,2013-04-26 00:21:00,
2013-04-25 18:32:00,68.0,25.0,-100.00,NE,40,6.0,13.0,19,-99.99,,,-99.99,,2013-04-26 00:32:00,
2013-04-25 18:41:00,67.0,24.0,-100.00,NE,40,8.0,10.0,19,-99.99,,,-99.99,,2013-04-26 00:41:00,
2013-04-25 18:51:00,65.0,23.0,-100.00,NE,40,9.0,11.0,20,-99.99,,,-99.99,,2013-04-26 00:51:00,
2013-04-25 19:01:00,63.0,22.0,-100.00,NE,45,7.0,9.0,21,-99.99,,,-99.99,,2013-04-26 01:01:00,
2013-04-25 19:11:00,62.0,23.0,-100.00,NE,45,9.0,9.0,21,-99.99,,,-99.99,,2013-04-26 01:11:00,
2013-04-25 19:21:00,62.0,22.0,-100.00,NE,50,7.0,9.0,22,-99.99,,,-99.99,,2013-04-26 01:21:00,
2013-04-25 19:31:00,62.0,23.0,-100.00,NE,50,8.0,9.0,22,-99.99,,,-99.99,,2013-04-26 01:31:00,
2013-04-25 19:42:00,62.0,23.0,-100.00,NE,50,8.0,9.0,22,-99.99,,,-99.99,,2013-04-26 01:42:00,
2013-04-25 19:52:00,62.0,23.0,-100.00,NE,50,8.0,9.0,22,-99.99,,,-99.99,,2013-04-26 01:52:00,
2013-04-25 20:02:00,62.0,23.0,-100.00,NE,50,8.0,9.0,22,-99.99,,,-99.99,,2013-04-26 02:02:00,
2013-04-25 20:42:00,53.0,20.0,-100.00,ENE,70,7.0,9.0,27,-99.99,,,-99.99,,2013-04-26 02:42:00,
2013-04-25 20:52:00,53.0,20.0,-100.00,ENE,70,7.0,9.0,27,-99.99,,,-99.99,,2013-04-26 02:52:00,
2013-04-25 21:01:00,49.0,21.0,-100.00,East,95,9.0,11.0,33,-99.99,,,-99.99,,2013-04-26 03:01:00,
2013-04-25 21:11:00,50.0,23.0,-100.00,East,100,7.0,9.0,35,-99.99,,,-99.99,,2013-04-26 03:11:00,
2013-04-25 21:21:00,51.0,24.0,-100.00,East,95,6.0,7.0,34,-99.99,,,-99.99,,2013-04-26 03:21:00,
2013-04-25 21:33:00,53.0,24.0,-100.00,East,90,4.0,6.0,32,-99.99,,,-99.99,,2013-04-26 03:33:00,
2013-04-25 21:43:00,53.0,24.0,-100.00,East,90,4.0,6.0,32,-99.99,,,-99.99,,2013-04-26 03:43:00,
2013-04-25 21:53:00,53.0,24.0,-100.00,East,90,4.0,6.0,32,-99.99,,,-99.99,,2013-04-26 03:53:00,
2013-04-25 22:02:00,53.0,23.0,-100.00,East,85,0.0,1.0,31,-99.99,,,-99.99,,2013-04-26 04:02:00,
2013-04-25 22:12:00,51.0,23.0,-100.00,East,95,10.0,15.0,33,-99.99,,,-99.99,,2013-04-26 04:12:00,
2013-04-25 22:23:00,51.0,23.0,-100.00,East,95,10.0,15.0,33,-99.99,,,-99.99,,2013-04-26 04:23:00,
2013-04-25 22:32:00,51.0,23.0,-100.00,East,95,10.0,15.0,33,-99.99,,,-99.99,,2013-04-26 04:32:00,
2013-04-25 22:43:00,51.0,23.0,-100.00,East,95,10.0,15.0,33,-99.99,,,-99.99,,2013-04-26 04:43:00,
2013-04-25 22:53:00,52.0,25.0,-100.00,East,95,7.0,8.0,33,-99.99,,,-99.99,,2013-04-26 04:53:00,
2013-04-25 23:02:00,51.0,24.0,-100.00,East,95,6.0,8.0,34,-99.99,,,-99.99,,2013-04-26 05:02:00,
2013-04-25 23:12:00,54.0,26.0,-100.00,East,90,7.0,9.0,32,-99.99,,,-99.99,,2013-04-26 05:12:00,
2013-04-25 23:22:00,52.0,24.0,-100.00,East,95,6.0,7.0,33,-99.99,,,-99.99,,2013-04-26 05:22:00,
2013-04-25 23:32:00,49.0,23.0,-100.00,ESE,105,9.0,11.0,36,-99.99,,,-99.99,,2013-04-26 05:32:00,
2013-04-25 23:42:00,47.0,24.0,-100.00,ESE,120,11.0,13.0,39,-99.99,,,-99.99,,2013-04-26 05:42:00,
2013-04-25 23:52:00,47.0,25.0,-100.00,SE,130,11.0,14.0,42,-99.99,,,-99.99,,2013-04-26 05:52:00,